Niamey, Niger
Current Conditions -  °F | °C
As of 6:00 PM on Thursday 30 Oct 2014 (Local Time) from DRRN Reporting Station
Few Clouds Few Clouds  
Wind Chill: 100°   Ceiling: Unl
Heat Index: 100°   Visibility: 5mi
Dew Point: 48°   Wind: 6mph
Humidity: 17%   Direction: 120°ESE
Pressure: 29.8"   Gusts: NA
Location:  13.52°N, 2.12°E
Report Text: DRRN 301700Z 12005KT 070V220 8000 FEW033 38/09 Q1009 NOSIG
Loading
Personal Weather Stations






























Interactive Weather Map
Tropical Storm Tracking
New forecast layout! Learn more

10-Day Weather Forecast

Advertisements
Track Severe Weather on mobile